Southside Place, Texas
Current Conditions -  °F | °C
As of 8:15 PM on Sunday 25 Jan 2015 (Local Time) from KMCJ Reporting Station
Clear Clear  
Wind Chill: 63°   Ceiling: Unl
Heat Index: 63°   Visibility: NA
Dew Point: 27°   Wind: 8mph
Humidity: 26%   Direction: 290°WNW
Pressure: 30.06"   Gusts: 18mph
Location:  29.7181°N, 95.4241°W
Report Text: KMCJ 260215Z AUTO 29007G16KT CLR 17/M03 A3006 RMK AO1
Loading
Personal Weather Stations






























Interactive Weather Map New forecast layout! Learn more

10-Day Weather Forecast

Advertisements
Track Severe Weather on mobile